Time;durP1;ratioP1;P1;durP2;ratioP2;P2;SDS_P1;SDS_P2;PMS_P1;PMS_P2;Temp;Humidity;BMP_temperature;BMP_pressure;BME280_temperature;BME280_humidity;BME280_pressure;Samples;Min_cycle;Max_cycle;Signal;HPM_P1;HPM_P2
2022/04/27 00:00:30;;;;;;;5.22;1.73;;;13.10;67.30;;;;;;5075802;28;20020;-73
2022/04/27 00:02:57;;;;;;;3.47;1.40;;;13.20;67.50;;;;;;5076118;28;20494;-73
2022/04/27 00:05:23;;;;;;;3.75;1.40;;;13.30;67.40;;;;;;5075894;28;20446;-73
2022/04/27 00:07:49;;;;;;;4.72;1.17;;;13.40;67.40;;;;;;5075524;28;20498;-74
2022/04/27 00:10:15;;;;;;;3.65;1.05;;;13.40;67.00;;;;;;5075177;28;20048;-73
2022/04/27 00:12:40;;;;;;;5.47;2.10;;;13.50;67.40;;;;;;5075688;28;20028;-73
2022/04/27 00:15:07;;;;;;;2.90;1.33;;;13.50;67.10;;;;;;5075549;28;20023;-73
2022/04/27 00:17:34;;;;;;;6.05;1.88;;;13.40;66.30;;;;;;5075344;28;20089;-74
2022/04/27 00:20:00;;;;;;;3.83;1.38;;;13.30;66.50;;;;;;5075338;28;20384;-74
2022/04/27 00:22:25;;;;;;;3.70;1.50;;;13.40;67.00;;;;;;5074992;28;20032;-74
2022/04/27 00:24:51;;;;;;;4.53;2.03;;;13.40;67.00;;;;;;5075448;28;20033;-74
2022/04/27 00:27:17;;;;;;;6.80;1.65;;;13.40;66.50;;;;;;5075085;28;20025;-74
2022/04/27 00:29:42;;;;;;;4.47;1.60;;;13.40;66.70;;;;;;5075463;28;20025;-74
2022/04/27 00:32:08;;;;;;;3.38;1.48;;;13.40;66.70;;;;;;5074925;28;20380;-74
2022/04/27 00:34:34;;;;;;;4.80;1.70;;;13.50;66.70;;;;;;5075238;28;20029;-74
2022/04/27 00:36:59;;;;;;;4.00;1.65;;;13.50;66.70;;;;;;5075317;28;20028;-74
2022/04/27 00:39:25;;;;;;;6.13;2.10;;;13.50;66.30;;;;;;5074442;28;20592;-74
2022/04/27 00:42:00;;;;;;;3.40;1.52;;;13.40;66.30;;;;;;5075247;28;20045;-74
2022/04/27 00:44:29;;;;;;;4.40;1.70;;;13.40;66.20;;;;;;5062135;28;20063;-75
2022/04/27 00:46:55;;;;;;;3.50;1.65;;;13.40;66.30;;;;;;5054770;28;20103;-74
2022/04/27 00:49:21;;;;;;;3.05;1.42;;;13.40;66.70;;;;;;5055060;28;20120;-74
2022/04/27 00:51:47;;;;;;;3.83;1.50;;;13.30;66.20;;;;;;5054955;28;20479;-74
2022/04/27 00:54:14;;;;;;;5.10;1.60;;;13.30;66.10;;;;;;5054875;28;20027;-74
2022/04/27 00:56:42;;;;;;;6.05;1.83;;;13.30;66.20;;;;;;5054617;28;20108;-75
2022/04/27 00:59:08;;;;;;;6.45;1.40;;;13.30;66.10;;;;;;5054268;28;20056;-74
2022/04/27 01:01:34;;;;;;;2.92;1.17;;;13.30;66.20;;;;;;5054629;28;20063;-74
2022/04/27 01:04:00;;;;;;;5.20;1.50;;;13.30;66.30;;;;;;5054698;28;20079;-74
2022/04/27 01:06:26;;;;;;;4.53;1.23;;;13.30;66.70;;;;;;5054553;28;20427;-74
2022/04/27 01:08:52;;;;;;;2.65;1.35;;;13.40;66.90;;;;;;5053889;28;20051;-74
2022/04/27 01:11:17;;;;;;;4.03;1.50;;;13.40;66.80;;;;;;5053951;28;20496;-74
2022/04/27 01:13:43;;;;;;;5.22;1.50;;;13.40;66.80;;;;;;5054549;28;20029;-74
2022/04/27 01:16:10;;;;;;;5.43;1.73;;;13.40;66.70;;;;;;5054159;28;20894;-74
2022/04/27 01:18:36;;;;;;;5.28;1.45;;;13.40;66.60;;;;;;5054189;28;20029;-75
2022/04/27 01:21:03;;;;;;;2.38;1.40;;;13.40;66.40;;;;;;5054344;28;20028;-74
2022/04/27 01:23:29;;;;;;;4.53;1.50;;;13.40;66.50;;;;;;5054264;28;20033;-75
2022/04/27 01:25:56;;;;;;;3.92;1.50;;;13.40;66.40;;;;;;5053830;28;20021;-75
2022/04/27 01:28:30;;;;;;;4.75;1.70;;;13.30;66.40;;;;;;5054029;28;20106;-75
2022/04/27 01:31:01;;;;;;;5.07;1.67;;;13.30;67.10;;;;;;5054293;28;20029;-74
2022/04/27 01:33:27;;;;;;;3.03;1.98;;;13.30;66.50;;;;;;5053878;28;20029;-74
2022/04/27 01:35:54;;;;;;;7.25;1.98;;;13.20;66.30;;;;;;5054131;28;20021;-74
2022/04/27 01:38:20;;;;;;;3.35;1.80;;;13.20;66.40;;;;;;5053691;28;20051;-74
2022/04/27 01:40:46;;;;;;;7.13;2.67;;;13.10;66.50;;;;;;5054076;28;20021;-74
2022/04/27 01:43:15;;;;;;;5.35;2.70;;;13.10;66.60;;;;;;5053508;28;20538;-74
2022/04/27 01:45:44;;;;;;;6.68;2.50;;;12.90;67.40;;;;;;5053967;28;20028;-75
2022/04/27 01:48:13;;;;;;;4.10;1.88;;;12.80;67.00;;;;;;5053412;28;20032;-74
2022/04/27 01:50:39;;;;;;;3.22;1.80;;;12.70;67.50;;;;;;5053926;28;20033;-74
2022/04/27 01:55:50;;;;;;;5.82;2.25;;;12.60;68.00;;;;;;5053876;28;20039;-74
2022/04/27 01:58:16;;;;;;;6.03;2.00;;;12.60;68.10;;;;;;5053676;28;20064;-75
2022/04/27 02:00:42;;;;;;;4.50;1.42;;;12.60;68.10;;;;;;5053746;28;20033;-74
2022/04/27 02:03:07;;;;;;;3.60;1.60;;;12.70;68.30;;;;;;5053424;28;20082;-74
2022/04/27 02:05:34;;;;;;;5.35;1.83;;;12.70;68.20;;;;;;5053565;28;20368;-74
2022/04/27 02:08:00;;;;;;;6.20;2.10;;;12.70;68.40;;;;;;5053289;28;20025;-74
2022/04/27 02:10:26;;;;;;;6.30;2.78;;;12.80;68.10;;;;;;5053177;28;20091;-75
2022/04/27 02:12:51;;;;;;;4.47;2.00;;;12.70;67.90;;;;;;5053351;28;20032;-74
2022/04/27 02:15:17;;;;;;;4.75;2.63;;;12.70;68.00;;;;;;5053153;28;20495;-74
2022/04/27 02:17:43;;;;;;;5.32;2.58;;;12.70;67.80;;;;;;5053505;28;20021;-74
2022/04/27 02:20:09;;;;;;;6.10;3.00;;;12.50;68.00;;;;;;5053490;28;20447;-74
2022/04/27 02:22:35;;;;;;;6.63;2.78;;;12.50;68.20;;;;;;5053027;28;20411;-74
2022/04/27 02:25:01;;;;;;;7.72;2.78;;;12.40;68.40;;;;;;5053178;28;20087;-74
2022/04/27 02:27:27;;;;;;;6.43;2.72;;;12.40;68.50;;;;;;5053263;28;20051;-74
2022/04/27 02:29:54;;;;;;;7.85;2.53;;;12.40;68.60;;;;;;5053215;28;20025;-74
2022/04/27 02:32:19;;;;;;;8.05;2.60;;;12.40;68.60;;;;;;5052951;28;20111;-75
2022/04/27 02:34:45;;;;;;;9.73;3.35;;;12.40;68.60;;;;;;5053019;28;20053;-74
2022/04/27 02:37:11;;;;;;;7.43;2.95;;;12.30;68.50;;;;;;5052949;28;20025;-74
2022/04/27 02:39:36;;;;;;;6.32;2.55;;;12.20;68.70;;;;;;5053176;28;20021;-74
2022/04/27 02:42:03;;;;;;;8.02;3.08;;;12.20;68.90;;;;;;5052796;28;20044;-74
2022/04/27 02:44:28;;;;;;;5.50;2.30;;;12.20;69.10;;;;;;5052902;28;20029;-74
2022/04/27 02:46:54;;;;;;;8.68;3.42;;;12.20;69.30;;;;;;5052803;28;20524;-74
2022/04/27 02:52:05;;;;;;;8.30;3.80;;;11.80;69.70;;;;;;5052890;28;20078;-74
2022/04/27 02:54:30;;;;;;;5.78;3.20;;;11.70;70.30;;;;;;5052841;28;20021;-74
2022/04/27 02:56:56;;;;;;;8.48;3.88;;;11.40;71.00;;;;;;5052712;28;20163;-74
2022/04/27 02:59:22;;;;;;;7.68;2.90;;;11.30;71.70;;;;;;5052873;28;20021;-74
2022/04/27 03:01:48;;;;;;;5.90;3.15;;;11.20;72.20;;;;;;5052572;28;20480;-74
2022/04/27 03:04:14;;;;;;;6.88;3.90;;;11.20;72.30;;;;;;5055819;28;20118;-74
2022/04/27 03:06:39;;;;;;;9.82;3.80;;;11.10;72.80;;;;;;5056604;28;20488;-74
2022/04/27 03:09:05;;;;;;;7.75;3.25;;;10.90;73.30;;;;;;5056267;28;20073;-74
2022/04/27 03:11:31;;;;;;;10.25;4.43;;;10.80;73.80;;;;;;5056649;28;20115;-74
2022/04/27 03:13:57;;;;;;;6.97;3.85;;;10.80;74.10;;;;;;5056578;28;20029;-74
2022/04/27 03:16:22;;;;;;;5.85;3.35;;;10.70;74.40;;;;;;5056564;28;20029;-75
2022/04/27 03:18:48;;;;;;;7.95;3.28;;;10.70;74.50;;;;;;5056789;28;20374;-74
2022/04/27 03:21:13;;;;;;;7.40;2.88;;;10.80;74.50;;;;;;5056031;28;20017;-75
2022/04/27 03:23:39;;;;;;;6.65;3.35;;;10.80;74.40;;;;;;5056612;28;20029;-75
2022/04/27 03:26:05;;;;;;;5.03;2.80;;;11.00;74.30;;;;;;5056542;28;20381;-74
2022/04/27 03:28:30;;;;;;;6.97;3.10;;;11.10;73.90;;;;;;5056559;28;20025;-74
2022/04/27 03:30:56;;;;;;;7.40;3.00;;;11.30;73.70;;;;;;5056207;28;20021;-74
2022/04/27 03:33:22;;;;;;;5.65;2.95;;;11.40;73.30;;;;;;5056034;28;20036;-74
2022/04/27 03:35:47;;;;;;;5.60;2.90;;;11.50;73.10;;;;;;5056428;28;20056;-74
2022/04/27 03:38:14;;;;;;;6.15;2.78;;;11.60;72.90;;;;;;5056378;28;20055;-74
2022/04/27 03:40:40;;;;;;;9.60;3.10;;;11.60;72.70;;;;;;5056226;28;20037;-75
2022/04/27 03:43:05;;;;;;;4.93;2.22;;;11.70;72.50;;;;;;5056076;28;20086;-74
2022/04/27 03:45:31;;;;;;;6.15;3.22;;;11.80;72.40;;;;;;5056396;28;20025;-74
2022/04/27 03:47:57;;;;;;;5.32;2.60;;;11.90;72.10;;;;;;5056251;28;20423;-74
2022/04/27 03:50:22;;;;;;;7.68;2.70;;;11.80;71.90;;;;;;5055579;28;20431;-74
2022/04/27 03:52:48;;;;;;;8.05;2.88;;;11.90;72.00;;;;;;5055839;28;20112;-74
2022/04/27 03:55:14;;;;;;;7.68;3.00;;;11.90;71.90;;;;;;5056070;28;20099;-74
2022/04/27 03:57:39;;;;;;;7.05;2.88;;;11.90;71.80;;;;;;5055759;28;20477;-74
2022/04/27 04:00:07;;;;;;;6.90;2.80;;;11.90;71.80;;;;;;5055905;28;20452;-74
2022/04/27 04:02:33;;;;;;;7.90;3.05;;;11.90;71.70;;;;;;5055291;28;20041;-74
2022/04/27 04:04:58;;;;;;;6.07;2.70;;;11.90;71.70;;;;;;5055880;28;20547;-74
2022/04/27 04:07:24;;;;;;;6.05;2.83;;;11.90;71.70;;;;;;5055748;28;20021;-74
2022/04/27 04:09:50;;;;;;;7.72;3.15;;;11.90;71.70;;;;;;5055375;28;20147;-74
2022/04/27 04:12:15;;;;;;;6.65;2.83;;;11.90;71.70;;;;;;5055726;28;20028;-74
2022/04/27 04:14:41;;;;;;;8.45;2.90;;;11.90;71.60;;;;;;5054713;28;20298;-74
2022/04/27 04:17:06;;;;;;;5.60;2.70;;;11.80;71.70;;;;;;5053816;28;20500;-74
2022/04/27 04:19:32;;;;;;;5.85;2.55;;;11.90;71.90;;;;;;5055539;28;20020;-74
2022/04/27 04:21:59;;;;;;;7.10;3.20;;;11.90;71.90;;;;;;5055563;28;20052;-74
2022/04/27 04:24:25;;;;;;;5.72;2.60;;;11.90;71.80;;;;;;5055418;28;20388;-74
2022/04/27 04:29:35;;;;;;;5.13;2.47;;;12.00;71.80;;;;;;5055214;28;20071;-74
2022/04/27 04:32:01;;;;;;;5.88;2.65;;;12.00;71.60;;;;;;5055439;28;20060;-74
2022/04/27 04:34:27;;;;;;;6.80;2.50;;;12.00;71.50;;;;;;5055375;28;20036;-74
2022/04/27 04:36:53;;;;;;;5.75;2.97;;;11.90;71.50;;;;;;5055225;28;20428;-74
2022/04/27 04:39:18;;;;;;;6.82;3.10;;;12.00;71.60;;;;;;5054811;28;20376;-74
2022/04/27 04:41:44;;;;;;;7.13;2.67;;;12.00;71.50;;;;;;5054950;28;20043;-74
2022/04/27 04:44:10;;;;;;;7.82;3.08;;;12.00;71.40;;;;;;5054994;28;20032;-74
2022/04/27 04:46:36;;;;;;;5.47;3.13;;;12.00;71.30;;;;;;5054909;28;20602;-74
2022/04/27 04:49:01;;;;;;;5.93;3.00;;;12.00;71.40;;;;;;5055243;28;20024;-74
2022/04/27 04:51:27;;;;;;;6.13;3.30;;;12.00;71.50;;;;;;5054934;28;20029;-74
2022/04/27 04:53:53;;;;;;;7.00;3.50;;;11.90;71.50;;;;;;5055002;28;20484;-74
2022/04/27 04:56:19;;;;;;;9.07;3.25;;;11.80;71.70;;;;;;5054435;28;20068;-74
2022/04/27 04:58:44;;;;;;;10.18;3.15;;;11.70;71.90;;;;;;5054816;28;20384;-74
2022/04/27 05:01:10;;;;;;;7.40;3.58;;;11.70;72.00;;;;;;5054522;28;20522;-74
2022/04/27 05:03:37;;;;;;;4.53;2.75;;;11.60;72.10;;;;;;5054682;28;20040;-74
2022/04/27 05:06:05;;;;;;;5.30;3.13;;;11.60;72.30;;;;;;5054608;28;20033;-74
2022/04/27 05:08:31;;;;;;;9.80;3.53;;;11.60;72.50;;;;;;5054532;28;20104;-73
2022/04/27 05:10:57;;;;;;;4.65;2.95;;;11.60;72.60;;;;;;5054265;28;20552;-73
2022/04/27 05:13:23;;;;;;;8.65;3.38;;;11.60;72.60;;;;;;5054513;28;20037;-73
2022/04/27 05:15:49;;;;;;;6.55;3.42;;;11.70;72.70;;;;;;5054148;28;20090;-73
2022/04/27 05:18:17;;;;;;;7.38;3.17;;;11.70;72.70;;;;;;5054439;28;20025;-73
2022/04/27 05:20:43;;;;;;;6.13;2.83;;;11.70;72.60;;;;;;5054307;28;20025;-73
2022/04/27 05:23:11;;;;;;;11.20;3.70;;;11.80;72.70;;;;;;5054146;28;20033;-73
2022/04/27 05:25:37;;;;;;;11.10;4.00;;;11.80;72.80;;;;;;5053987;28;20103;-74
2022/04/27 05:28:03;;;;;;;6.68;3.50;;;11.70;72.90;;;;;;5054237;28;20490;-73
2022/04/27 05:33:16;;;;;;;13.88;4.47;;;11.50;73.50;;;;;;5054009;28;20098;-73
2022/04/27 05:35:42;;;;;;;9.20;3.63;;;11.30;74.20;;;;;;5053938;28;20033;-73
2022/04/27 05:38:09;;;;;;;12.48;4.32;;;11.20;74.80;;;;;;5054054;28;20025;-73
2022/04/27 05:40:35;;;;;;;10.10;4.38;;;11.30;75.00;;;;;;5053970;28;20052;-73
2022/04/27 05:43:05;;;;;;;7.72;4.47;;;11.30;74.90;;;;;;5053890;28;20037;-73
2022/04/27 05:45:32;;;;;;;8.40;3.83;;;11.20;75.00;;;;;;5053704;28;20394;-74
2022/04/27 05:48:00;;;;;;;7.38;4.50;;;11.20;75.30;;;;;;5053749;28;20029;-73
2022/04/27 05:50:26;;;;;;;5.85;3.75;;;11.10;75.60;;;;;;5054050;28;20021;-73
2022/04/27 05:52:56;;;;;;;7.15;4.07;;;11.20;75.70;;;;;;5053565;28;20112;-73
2022/04/27 05:55:22;;;;;;;8.68;3.58;;;11.30;75.60;;;;;;5053537;28;20027;-73
2022/04/27 05:57:47;;;;;;;7.70;4.05;;;11.30;75.80;;;;;;5053444;28;20029;-73
2022/04/27 06:00:14;;;;;;;7.20;4.10;;;11.40;75.80;;;;;;5053433;28;20021;-73
2022/04/27 06:02:40;;;;;;;11.85;4.70;;;11.40;75.80;;;;;;5053364;28;20040;-73
2022/04/27 06:05:09;;;;;;;10.27;4.82;;;11.40;75.80;;;;;;5053631;28;20033;-74
2022/04/27 06:07:36;;;;;;;7.55;3.92;;;11.20;76.30;;;;;;5053723;28;20045;-74
2022/04/27 06:10:04;;;;;;;7.53;4.18;;;11.20;76.60;;;;;;5053368;28;20049;-75
2022/04/27 06:12:35;;;;;;;6.78;3.63;;;11.20;76.70;;;;;;5053207;28;20041;-74
2022/04/27 06:15:02;;;;;;;8.13;4.07;;;11.30;76.70;;;;;;5053626;28;20053;-74
2022/04/27 06:17:27;;;;;;;10.05;4.57;;;11.50;76.70;;;;;;5053260;28;20045;-74
2022/04/27 06:19:53;;;;;;;9.82;4.03;;;11.60;76.90;;;;;;5053268;28;20436;-74
2022/04/27 06:22:22;;;;;;;6.93;3.70;;;11.80;76.10;;;;;;5053013;28;20032;-74
2022/04/27 06:24:47;;;;;;;7.35;4.25;;;11.90;76.10;;;;;;5053406;28;20494;-74
2022/04/27 06:27:13;;;;;;;8.88;4.10;;;12.00;75.90;;;;;;5053024;28;20108;-74
2022/04/27 06:29:38;;;;;;;8.77;3.83;;;12.10;76.00;;;;;;5053321;28;20044;-75
2022/04/27 06:32:04;;;;;;;7.53;3.17;;;12.10;75.70;;;;;;5053406;28;20100;-75
2022/04/27 06:34:31;;;;;;;14.75;3.92;;;12.10;75.10;;;;;;5052919;28;20510;-74
2022/04/27 06:36:56;;;;;;;9.70;3.13;;;12.10;75.20;;;;;;5052835;28;20025;-74
2022/04/27 06:39:22;;;;;;;10.13;3.50;;;12.10;75.50;;;;;;5052762;28;20025;-75
2022/04/27 06:41:48;;;;;;;8.82;3.40;;;12.10;75.40;;;;;;5053166;28;20060;-75
2022/04/27 06:44:13;;;;;;;8.25;3.42;;;12.30;75.10;;;;;;5052653;28;20025;-74
2022/04/27 06:46:39;;;;;;;8.02;3.50;;;12.30;74.80;;;;;;5053087;28;20020;-74
2022/04/27 06:49:04;;;;;;;7.95;3.63;;;12.30;75.70;;;;;;5052926;28;20457;-74
2022/04/27 06:51:30;;;;;;;11.82;3.35;;;12.20;75.90;;;;;;5053001;28;20094;-74
2022/04/27 06:53:55;;;;;;;11.10;3.35;;;12.30;75.20;;;;;;5053078;28;20029;-74
2022/04/27 06:56:21;;;;;;;12.55;3.90;;;12.40;75.50;;;;;;5053070;28;20421;-74
2022/04/27 06:58:47;;;;;;;10.18;4.00;;;12.40;76.40;;;;;;5052548;28;20083;-74
2022/04/27 07:01:13;;;;;;;6.43;3.70;;;12.30;76.40;;;;;;5053068;28;20048;-74
2022/04/27 07:03:39;;;;;;;11.15;4.63;;;12.30;76.50;;;;;;5052702;28;20469;-74
2022/04/27 07:06:06;;;;;;;11.00;4.43;;;12.20;76.70;;;;;;5052613;28;20036;-74
2022/04/27 07:08:34;;;;;;;9.23;4.90;;;12.20;76.30;;;;;;5053035;28;20028;-74
2022/04/27 07:10:59;;;;;;;9.98;5.30;;;12.30;76.60;;;;;;5052410;28;20045;-74
2022/04/27 07:13:25;;;;;;;9.50;5.43;;;12.40;76.80;;;;;;5052580;28;20023;-74
2022/04/27 07:15:51;;;;;;;13.30;5.88;;;12.60;76.20;;;;;;5052752;28;20033;-74
2022/04/27 07:18:17;;;;;;;11.95;5.43;;;12.50;75.70;;;;;;5052678;28;20048;-75
2022/04/27 07:20:43;;;;;;;9.88;5.38;;;12.70;76.80;;;;;;5052469;28;20033;-75
2022/04/27 07:23:08;;;;;;;33.92;6.93;;;12.80;75.30;;;;;;5052759;28;20061;-75
2022/04/27 07:25:34;;;;;;;9.95;4.30;;;12.90;75.70;;;;;;5052625;28;20053;-74
2022/04/27 07:28:00;;;;;;;9.13;4.53;;;13.10;75.30;;;;;;5052844;28;20028;-75
2022/04/27 07:30:26;;;;;;;9.70;3.90;;;13.20;74.30;;;;;;5052549;28;20047;-74
2022/04/27 07:32:52;;;;;;;10.05;4.55;;;13.20;72.80;;;;;;5052556;28;20032;-75
2022/04/27 07:35:18;;;;;;;10.65;4.22;;;13.30;73.00;;;;;;5052550;28;20096;-75
2022/04/27 07:37:44;;;;;;;10.98;4.97;;;13.20;72.10;;;;;;5052452;28;20047;-75
2022/04/27 07:40:11;;;;;;;9.38;4.82;;;13.30;72.80;;;;;;5052570;28;20025;-75
2022/04/27 07:42:37;;;;;;;8.68;4.47;;;13.30;72.50;;;;;;5052123;28;20057;-75
2022/04/27 07:45:05;;;;;;;11.43;4.55;;;13.40;72.30;;;;;;5052415;28;20017;-75
2022/04/27 07:47:40;;;;;;;10.27;3.90;;;13.50;72.60;;;;;;5052308;28;20494;-75
2022/04/27 07:50:11;;;;;;;7.63;3.28;;;13.60;70.70;;;;;;5053489;28;20533;-75
2022/04/27 07:52:37;;;;;;;6.25;3.55;;;13.70;70.50;;;;;;5056565;28;20047;-75
2022/04/27 07:55:05;;;;;;;9.23;3.40;;;13.90;71.50;;;;;;5055959;28;20446;-75
2022/04/27 07:57:32;;;;;;;7.00;3.67;;;14.00;71.90;;;;;;5055807;28;20103;-75
2022/04/27 07:59:58;;;;;;;9.13;3.53;;;14.20;71.30;;;;;;5055777;28;20029;-75
2022/04/27 08:02:24;;;;;;;9.88;3.55;;;14.00;68.70;;;;;;5055538;28;20080;-72
2022/04/27 08:04:50;;;;;;;6.68;2.85;;;14.00;70.30;;;;;;5055794;28;20056;-75
2022/04/27 08:07:15;;;;;;;7.35;2.67;;;14.10;69.00;;;;;;5055538;28;20106;-74
2022/04/27 08:09:41;;;;;;;6.55;2.75;;;14.10;67.60;;;;;;5055526;28;20053;-74
2022/04/27 08:12:07;;;;;;;6.63;2.33;;;14.10;66.90;;;;;;5055189;28;20103;-75
2022/04/27 08:14:33;;;;;;;8.50;2.00;;;14.10;67.30;;;;;;5055512;28;20021;-74
2022/04/27 08:17:01;;;;;;;5.43;2.22;;;14.30;67.20;;;;;;5055360;28;20037;-74
2022/04/27 08:19:27;;;;;;;4.43;1.88;;;14.40;65.90;;;;;;5055512;28;20031;-74
2022/04/27 08:21:54;;;;;;;6.28;1.70;;;14.40;65.80;;;;;;5055185;28;20108;-75
2022/04/27 08:24:21;;;;;;;5.07;1.70;;;14.50;64.60;;;;;;5055348;28;20029;-75
2022/04/27 08:26:47;;;;;;;7.20;1.60;;;14.50;63.00;;;;;;5055104;28;20056;-75
2022/04/27 08:29:13;;;;;;;6.95;1.92;;;14.60;64.60;;;;;;5055080;28;20021;-75
2022/04/27 08:31:38;;;;;;;5.75;1.38;;;14.40;63.30;;;;;;5055109;28;20029;-75
2022/04/27 08:34:04;;;;;;;4.95;1.45;;;14.20;64.00;;;;;;5055194;28;20040;-74
2022/04/27 08:36:30;;;;;;;8.10;2.10;;;14.40;63.80;;;;;;5055172;28;20032;-75
2022/04/27 08:38:56;;;;;;;6.63;1.98;;;14.50;64.10;;;;;;5055024;28;20031;-74
2022/04/27 08:41:21;;;;;;;5.10;1.67;;;14.70;64.70;;;;;;5054727;28;20029;-74
2022/04/27 08:43:47;;;;;;;3.20;1.45;;;14.80;62.30;;;;;;5054625;28;20119;-75
2022/04/27 08:46:15;;;;;;;4.63;1.30;;;14.80;63.70;;;;;;5055089;28;20114;-75
2022/04/27 08:48:45;;;;;;;5.32;1.38;;;14.70;61.60;;;;;;5054706;28;20468;-72
2022/04/27 08:51:11;;;;;;;5.60;1.45;;;14.80;61.80;;;;;;5054895;28;20052;-73
2022/04/27 08:53:37;;;;;;;4.80;1.50;;;14.90;62.40;;;;;;5054208;28;20025;-73
2022/04/27 08:56:03;;;;;;;4.43;1.13;;;14.90;61.00;;;;;;5054445;28;20112;-73
2022/04/27 08:58:28;;;;;;;7.32;1.42;;;14.90;61.10;;;;;;5054704;28;20044;-73
2022/04/27 09:00:55;;;;;;;5.80;1.42;;;15.00;62.20;;;;;;5054353;28;20495;-73
2022/04/27 09:03:30;;;;;;;4.40;1.05;;;14.90;60.20;;;;;;5054594;28;20037;-73
2022/04/27 09:05:59;;;;;;;5.55;1.42;;;15.00;60.40;;;;;;5054504;28;20025;-73
2022/04/27 09:08:35;;;;;;;7.70;1.10;;;15.10;61.00;;;;;;5054470;28;20024;-73
2022/04/27 09:11:18;;;;;;;5.10;1.63;;;15.20;61.20;;;;;;5054099;28;20068;-73
2022/04/27 09:13:55;;;;;;;;;;;15.40;63.10;;;;;;5054466;28;20049;-73
2022/04/27 09:16:23;;;;;;;6.40;1.40;;;15.40;59.70;;;;;;5054321;28;19905;-73
2022/04/27 09:22:04;;;;;;;4.30;1.23;;;15.40;59.60;;;;;;5054026;28;20075;-74
2022/04/27 09:24:47;;;;;;;3.50;1.38;;;15.20;59.30;;;;;;5054024;28;20113;-74
2022/04/27 09:27:17;;;;;;;5.68;1.52;;;15.10;59.70;;;;;;5054368;28;20043;-73
2022/04/27 09:29:43;;;;;;;5.20;1.23;;;15.10;59.90;;;;;;5053773;28;20024;-74
2022/04/27 09:32:15;;;;;;;7.22;1.52;;;15.10;59.90;;;;;;5054145;28;20035;-74
2022/04/27 09:34:48;;;;;;;4.95;1.30;;;15.00;59.50;;;;;;5054165;28;20116;-73
2022/04/27 09:37:21;;;;;;;7.47;1.52;;;15.10;59.90;;;;;;5054016;28;20021;-73
2022/04/27 09:40:01;;;;;;;5.72;1.60;;;15.30;61.00;;;;;;5053765;28;20096;-74
2022/04/27 09:42:31;;;;;;;7.95;1.50;;;15.60;60.30;;;;;;5053577;28;20037;-73
2022/04/27 09:45:33;;;;;;;5.07;1.35;;;15.50;58.90;;;;;;5053714;28;20408;-74
2022/04/27 09:48:04;;;;;;;4.75;1.55;;;15.30;59.60;;;;;;5053291;28;20029;-74
2022/04/27 09:50:48;;;;;;;4.80;1.38;;;15.10;61.00;;;;;;5053844;28;20031;-74
2022/04/27 09:53:15;;;;;;;5.35;1.40;;;15.30;60.20;;;;;;5053755;28;20017;-74
2022/04/27 09:55:54;;;;;;;3.20;1.30;;;15.60;60.00;;;;;;5053531;28;20032;-74
2022/04/27 09:58:20;;;;;;;4.95;1.80;;;15.90;58.70;;;;;;5053523;28;20472;-74
2022/04/27 10:00:48;;;;;;;4.90;1.20;;;16.10;58.50;;;;;;5053460;28;20021;-74
2022/04/27 10:03:15;;;;;;;3.08;1.02;;;16.20;58.00;;;;;;5053263;28;20099;-74
2022/04/27 10:05:42;;;;;;;6.38;1.73;;;16.20;58.70;;;;;;5053613;28;20029;-74
2022/04/27 10:08:09;;;;;;;4.13;1.30;;;16.30;58.00;;;;;;5053532;28;20062;-74
2022/04/27 10:10:45;;;;;;;4.97;1.33;;;16.50;57.20;;;;;;5052778;28;20083;-74
2022/04/27 10:13:13;;;;;;;3.85;0.80;;;16.70;56.70;;;;;;5052538;28;20481;-74
2022/04/27 10:15:46;;;;;;;5.72;1.40;;;16.90;56.50;;;;;;5053152;28;20023;-74
2022/04/27 10:18:17;;;;;;;4.68;1.17;;;17.00;55.20;;;;;;5053042;28;20064;-74
2022/04/27 10:20:44;;;;;;;5.15;1.20;;;17.20;55.20;;;;;;5052989;28;20045;-74
2022/04/27 10:23:18;;;;;;;6.45;1.05;;;17.40;54.80;;;;;;5053276;28;20043;-74
2022/04/27 10:26:06;;;;;;;4.75;1.20;;;17.50;54.40;;;;;;5053146;28;20110;-74
2022/04/27 10:28:35;;;;;;;3.28;0.90;;;17.60;54.80;;;;;;5053216;28;20154;-74
2022/04/27 10:31:03;;;;;;;5.50;1.10;;;17.70;55.10;;;;;;5052907;28;20469;-74
2022/04/27 10:33:47;;;;;;;5.15;0.95;;;17.80;54.70;;;;;;5053214;28;20040;-74
2022/04/27 10:36:28;;;;;;;3.47;0.80;;;17.70;53.40;;;;;;5052969;28;20583;-74
2022/04/27 10:39:11;;;;;;;3.50;1.23;;;17.60;53.60;;;;;;5053281;28;20155;-74
2022/04/27 10:41:59;;;;;;;3.75;1.25;;;17.20;54.20;;;;;;5052813;28;20460;-74
2022/04/27 10:44:59;;;;;;;3.35;1.25;;;17.10;55.40;;;;;;5052883;28;20032;-74
2022/04/27 10:47:33;;;;;;;4.43;1.17;;;17.40;57.00;;;;;;5040989;28;20037;-74
2022/04/27 10:50:12;;;;;;;6.50;1.10;;;17.40;54.20;;;;;;5053080;28;20441;-74
2022/04/27 10:52:55;;;;;;;4.13;1.30;;;17.20;54.10;;;;;;5052835;28;20048;-74
2022/04/27 10:55:43;;;;;;;4.45;1.08;;;17.10;54.30;;;;;;5053589;28;20111;-74
2022/04/27 10:58:35;;;;;;;3.95;0.80;;;17.20;55.00;;;;;;5053164;28;20029;-74
2022/04/27 11:01:21;;;;;;;4.25;1.02;;;17.30;54.80;;;;;;5050308;28;20057;-74
2022/04/27 11:04:06;;;;;;;3.97;1.10;;;17.30;55.30;;;;;;5048542;28;20038;-74
2022/04/27 11:07:16;;;;;;;3.30;1.00;;;16.90;53.70;;;;;;5052998;28;20108;-74
2022/04/27 11:10:09;;;;;;;5.10;1.00;;;16.70;54.60;;;;;;5010356;28;20422;-73
2022/04/27 11:12:39;;;;;;;3.05;0.90;;;16.60;55.50;;;;;;5059334;28;20123;-77
2022/04/27 11:15:10;;;;;;;5.43;1.27;;;16.60;55.50;;;;;;5072693;28;20089;-73
2022/04/27 11:17:38;;;;;;;4.38;1.20;;;16.70;55.60;;;;;;5070262;28;20480;-74
2022/04/27 11:20:05;;;;;;;3.67;1.23;;;16.70;58.40;;;;;;5072444;28;20329;-72
2022/04/27 11:22:39;;;;;;;3.05;1.38;;;17.00;56.00;;;;;;5072687;28;20067;-73
2022/04/27 11:25:07;;;;;;;6.68;1.50;;;17.20;55.00;;;;;;5075339;28;20043;-74
2022/04/27 11:27:34;;;;;;;4.60;1.35;;;17.50;54.30;;;;;;5075740;28;20021;-74
2022/04/27 11:30:03;;;;;;;6.07;1.23;;;17.70;52.90;;;;;;5076331;28;20384;-72
2022/04/27 11:32:29;;;;;;;4.63;1.10;;;17.60;53.60;;;;;;5075581;28;20379;-72
2022/04/27 11:34:55;;;;;;;5.28;1.00;;;17.50;53.20;;;;;;5075948;28;20031;-73
2022/04/27 11:37:21;;;;;;;2.88;0.98;;;17.70;53.20;;;;;;5075621;28;20032;-74
2022/04/27 11:39:48;;;;;;;4.75;1.05;;;17.90;53.00;;;;;;5076254;28;20032;-74
2022/04/27 11:42:16;;;;;;;3.70;1.00;;;18.20;52.50;;;;;;5074643;28;20055;-74
2022/04/27 11:44:43;;;;;;;2.83;1.10;;;18.50;52.20;;;;;;5076440;28;20033;-90
2022/04/27 11:47:44;;;;;;;5.78;1.13;;;18.80;52.50;;;;;;5076124;28;20055;-80
2022/04/27 11:50:09;;;;;;;4.00;1.10;;;19.00;51.70;;;;;;5033750;28;20025;-75
2022/04/27 11:52:36;;;;;;;3.47;0.80;;;19.10;50.80;;;;;;5067109;28;20039;-75
2022/04/27 11:55:08;;;;;;;6.10;1.20;;;19.20;50.30;;;;;;5075740;28;20103;-75
2022/04/27 11:57:34;;;;;;;3.70;1.13;;;19.20;50.30;;;;;;5075165;28;20472;-75
2022/04/27 12:00:02;;;;;;;4.65;1.15;;;19.20;49.20;;;;;;5074779;28;20028;-75
2022/04/27 12:02:28;;;;;;;3.78;1.00;;;19.20;49.90;;;;;;5075866;28;20116;-75
2022/04/27 12:04:58;;;;;;;7.55;1.25;;;19.20;50.40;;;;;;5075477;28;20056;-76
2022/04/27 12:07:24;;;;;;;2.30;0.77;;;19.20;50.60;;;;;;5075537;28;20078;-75
2022/04/27 12:09:58;;;;;;;4.80;1.05;;;19.20;51.10;;;;;;5075503;28;20052;-76
2022/04/27 12:12:24;;;;;;;5.50;1.13;;;19.30;49.80;;;;;;5075131;28;20029;-76
2022/04/27 12:14:50;;;;;;;4.75;1.20;;;19.20;49.10;;;;;;5075593;28;20100;-76
2022/04/27 12:17:45;;;;;;;3.17;1.17;;;19.30;49.40;;;;;;5074182;28;20028;-78
2022/04/27 12:20:30;;;;;;;4.22;1.05;;;19.30;48.50;;;;;;5075485;28;20032;-76
2022/04/27 12:23:08;;;;;;;2.72;1.20;;;19.40;48.80;;;;;;5075536;28;20032;-78
2022/04/27 12:26:01;;;;;;;4.78;1.10;;;19.50;49.20;;;;;;5075375;28;20032;-76
2022/04/27 12:28:29;;;;;;;3.40;1.42;;;19.60;49.40;;;;;;5075063;28;20499;-76
2022/04/27 12:30:56;;;;;;;3.30;0.90;;;19.70;49.00;;;;;;5074970;28;20531;-76
2022/04/27 12:33:26;;;;;;;4.10;1.25;;;19.70;49.60;;;;;;5075484;28;20029;-76
2022/04/27 12:39:05;;;;;;;3.00;0.65;;;19.60;47.80;;;;;;5075407;28;20495;-76
2022/04/27 12:41:40;;;;;;;3.42;0.80;;;19.70;48.10;;;;;;5074538;28;20028;-76
2022/04/27 12:44:10;;;;;;;4.13;1.20;;;19.80;48.00;;;;;;5074040;28;20487;-78
2022/04/27 12:46:38;;;;;;;3.50;0.93;;;19.70;46.30;;;;;;5074683;28;20025;-75
2022/04/27 12:49:05;;;;;;;2.92;0.90;;;19.50;47.30;;;;;;5075094;28;20093;-74
2022/04/27 12:51:35;;;;;;;3.88;0.80;;;19.40;47.50;;;;;;5074778;28;20055;-76
2022/04/27 12:54:04;;;;;;;4.90;1.17;;;19.50;48.40;;;;;;5074557;28;20092;-75
2022/04/27 12:56:35;;;;;;;3.65;1.30;;;19.70;48.30;;;;;;5074242;28;20032;-76
2022/04/27 12:59:09;;;;;;;3.70;1.48;;;19.70;47.10;;;;;;5074831;28;20039;-76
2022/04/27 13:01:36;;;;;;;3.80;1.13;;;19.60;47.40;;;;;;5074368;28;20020;-75
2022/04/27 13:04:01;;;;;;;5.30;1.40;;;19.50;47.90;;;;;;5074610;28;20032;-76
2022/04/27 13:06:30;;;;;;;3.83;1.15;;;19.50;47.60;;;;;;5074510;28;20036;-77
2022/04/27 13:11:56;;;;;;;2.53;1.08;;;19.60;47.40;;;;;;5074369;28;20055;-77